Kaaawa, Hawaii
Current Conditions -  °F | °C
As of 9:57 PM on Thursday 23 Oct 2014 (Local Time) from PHNG Reporting Station
Overcast Overcast  
Wind Chill: 80°   Ceiling: 6000
Heat Index: 83°   Visibility: 10mi
Dew Point: 69°   Wind: 12mph
Humidity: 69%   Direction: 60°ENE
Pressure: 30.07"   Gusts: 17mph
Location:  21.54°N, 157.84°W
Report Text: PHNG 240757Z 06010G15KT 10SM FEW027 SCT046 OVC060 27/21 A3007 RMK AO2 SLP176 T02670206 $
Loading
Personal Weather Stations






























Interactive Weather Map
Tropical Storm Tracking
New forecast layout! Learn more

10-Day Weather Forecast

Advertisements
Track Severe Weather on mobile